sensor_id;sensor_type;location;lat;lon;timestamp;pressure;altitude;pressure_sealevel;temperature;humidity
82555;BME280;72219;48.186;11.554;2023-11-22T00:00:10;95813.75;;;15.67;47.05
82555;BME280;72219;48.186;11.554;2023-11-22T00:02:36;95811.16;;;15.67;47.46
82555;BME280;72219;48.186;11.554;2023-11-22T00:05:05;95803.31;;;15.67;47.18
82555;BME280;72219;48.186;11.554;2023-11-22T00:07:34;95808.88;;;15.63;47.21
82555;BME280;72219;48.186;11.554;2023-11-22T00:09:59;95808.72;;;15.65;47.54
82555;BME280;72219;48.186;11.554;2023-11-22T00:12:26;95812.81;;;15.59;47.09
82555;BME280;72219;48.186;11.554;2023-11-22T00:14:54;95822.59;;;15.66;47.17
82555;BME280;72219;48.186;11.554;2023-11-22T00:17:20;95823.41;;;15.66;47.04
82555;BME280;72219;48.186;11.554;2023-11-22T00:19:47;95823.03;;;15.69;47.43
82555;BME280;72219;48.186;11.554;2023-11-22T00:22:13;95823.75;;;15.63;47.41
82555;BME280;72219;48.186;11.554;2023-11-22T00:24:39;95820.97;;;15.64;47.00
82555;BME280;72219;48.186;11.554;2023-11-22T00:27:05;95816.50;;;15.73;46.80
82555;BME280;72219;48.186;11.554;2023-11-22T00:29:31;95812.47;;;15.62;47.28
82555;BME280;72219;48.186;11.554;2023-11-22T00:31:57;95803.00;;;15.61;47.00
82555;BME280;72219;48.186;11.554;2023-11-22T00:34:22;95818.97;;;15.67;47.33
82555;BME280;72219;48.186;11.554;2023-11-22T00:36:49;95828.97;;;15.63;47.21
82555;BME280;72219;48.186;11.554;2023-11-22T00:39:16;95819.19;;;15.57;47.20
82555;BME280;72219;48.186;11.554;2023-11-22T00:41:42;95827.16;;;15.63;47.09
82555;BME280;72219;48.186;11.554;2023-11-22T00:44:09;95823.25;;;15.59;47.43
82555;BME280;72219;48.186;11.554;2023-11-22T00:46:35;95831.72;;;15.70;47.05
82555;BME280;72219;48.186;11.554;2023-11-22T00:49:02;95828.78;;;15.64;47.38
82555;BME280;72219;48.186;11.554;2023-11-22T00:51:29;95831.72;;;15.70;47.06
82555;BME280;72219;48.186;11.554;2023-11-22T00:53:56;95834.94;;;15.72;47.00
82555;BME280;72219;48.186;11.554;2023-11-22T00:56:22;95834.47;;;15.68;46.95
82555;BME280;72219;48.186;11.554;2023-11-22T00:58:48;95838.25;;;15.66;47.52
82555;BME280;72219;48.186;11.554;2023-11-22T01:01:17;95832.19;;;15.65;47.39
82555;BME280;72219;48.186;11.554;2023-11-22T01:03:44;95837.41;;;15.65;47.52
82555;BME280;72219;48.186;11.554;2023-11-22T01:06:11;95834.34;;;15.53;47.25
82555;BME280;72219;48.186;11.554;2023-11-22T01:08:36;95840.53;;;15.60;47.12
82555;BME280;72219;48.186;11.554;2023-11-22T01:11:03;95840.84;;;15.57;47.27
82555;BME280;72219;48.186;11.554;2023-11-22T01:13:29;95837.94;;;15.60;46.84
82555;BME280;72219;48.186;11.554;2023-11-22T01:15:54;95843.47;;;15.66;47.54
82555;BME280;72219;48.186;11.554;2023-11-22T01:18:20;95845.25;;;15.65;47.19
82555;BME280;72219;48.186;11.554;2023-11-22T01:20:45;95847.34;;;15.61;47.66
82555;BME280;72219;48.186;11.554;2023-11-22T01:23:12;95847.84;;;15.65;47.10
82555;BME280;72219;48.186;11.554;2023-11-22T01:25:37;95851.44;;;15.64;47.13
82555;BME280;72219;48.186;11.554;2023-11-22T01:28:03;95851.91;;;15.68;47.17
82555;BME280;72219;48.186;11.554;2023-11-22T01:30:28;95844.25;;;15.66;47.24
82555;BME280;72219;48.186;11.554;2023-11-22T01:32:54;95842.81;;;15.63;47.03
82555;BME280;72219;48.186;11.554;2023-11-22T01:35:21;95846.06;;;15.57;47.06
82555;BME280;72219;48.186;11.554;2023-11-22T01:37:50;95849.34;;;15.59;47.09
82555;BME280;72219;48.186;11.554;2023-11-22T01:40:15;95855.84;;;15.63;47.31
82555;BME280;72219;48.186;11.554;2023-11-22T01:42:41;95866.09;;;15.65;47.56
82555;BME280;72219;48.186;11.554;2023-11-22T01:45:08;95869.06;;;15.62;47.34
82555;BME280;72219;48.186;11.554;2023-11-22T01:47:35;95869.53;;;15.57;47.39
82555;BME280;72219;48.186;11.554;2023-11-22T01:50:06;95868.25;;;15.53;47.44
82555;BME280;72219;48.186;11.554;2023-11-22T01:52:32;95874.44;;;15.60;47.60
82555;BME280;72219;48.186;11.554;2023-11-22T01:54:58;95867.44;;;15.53;47.31
82555;BME280;72219;48.186;11.554;2023-11-22T01:57:25;95889.44;;;15.58;47.16
82555;BME280;72219;48.186;11.554;2023-11-22T01:59:51;95883.59;;;15.40;47.27
82555;BME280;72219;48.186;11.554;2023-11-22T02:02:16;95900.69;;;15.42;47.20
82555;BME280;72219;48.186;11.554;2023-11-22T02:04:42;95906.41;;;15.46;47.52
82555;BME280;72219;48.186;11.554;2023-11-22T02:07:08;95898.09;;;15.42;47.58
82555;BME280;72219;48.186;11.554;2023-11-22T02:09:35;95911.63;;;15.38;47.93
82555;BME280;72219;48.186;11.554;2023-11-22T02:12:01;95912.59;;;15.37;47.82
82555;BME280;72219;48.186;11.554;2023-11-22T02:14:27;95907.72;;;15.34;47.70
82555;BME280;72219;48.186;11.554;2023-11-22T02:16:53;95914.72;;;15.33;47.56
82555;BME280;72219;48.186;11.554;2023-11-22T02:19:18;95915.22;;;15.28;47.55
82555;BME280;72219;48.186;11.554;2023-11-22T02:21:45;95909.66;;;15.31;47.98
82555;BME280;72219;48.186;11.554;2023-11-22T02:24:10;95924.50;;;15.31;48.01
82555;BME280;72219;48.186;11.554;2023-11-22T02:26:37;95920.94;;;15.32;47.89
82555;BME280;72219;48.186;11.554;2023-11-22T02:29:03;95923.22;;;15.27;47.58
82555;BME280;72219;48.186;11.554;2023-11-22T02:31:32;95922.88;;;15.22;48.01
82555;BME280;72219;48.186;11.554;2023-11-22T02:34:00;95940.16;;;15.31;47.79
82555;BME280;72219;48.186;11.554;2023-11-22T02:36:26;95932.97;;;15.25;47.92
82555;BME280;72219;48.186;11.554;2023-11-22T02:38:51;95942.59;;;15.24;47.31
82555;BME280;72219;48.186;11.554;2023-11-22T02:41:17;95948.31;;;15.20;47.75
82555;BME280;72219;48.186;11.554;2023-11-22T02:43:43;95950.41;;;15.24;47.57
82555;BME280;72219;48.186;11.554;2023-11-22T02:46:09;95945.53;;;15.21;47.94
82555;BME280;72219;48.186;11.554;2023-11-22T02:48:34;95953.19;;;15.23;47.62
82555;BME280;72219;48.186;11.554;2023-11-22T02:51:00;95947.16;;;15.22;47.79
82555;BME280;72219;48.186;11.554;2023-11-22T02:53:25;95954.66;;;15.25;47.70
82555;BME280;72219;48.186;11.554;2023-11-22T02:55:52;95955.63;;;15.24;47.48
82555;BME280;72219;48.186;11.554;2023-11-22T02:58:21;95952.06;;;15.17;47.95
82555;BME280;72219;48.186;11.554;2023-11-22T03:00:47;95954.97;;;15.14;47.28
82555;BME280;72219;48.186;11.554;2023-11-22T03:03:14;95958.22;;;15.16;48.16
82555;BME280;72219;48.186;11.554;2023-11-22T03:05:39;95959.53;;;15.20;48.15
82555;BME280;72219;48.186;11.554;2023-11-22T03:08:06;95960.84;;;15.16;47.71
82555;BME280;72219;48.186;11.554;2023-11-22T03:10:33;95963.44;;;15.16;48.10
82555;BME280;72219;48.186;11.554;2023-11-22T03:12:59;95964.09;;;15.18;47.79
82555;BME280;72219;48.186;11.554;2023-11-22T03:15:24;95969.13;;;15.11;48.11
82555;BME280;72219;48.186;11.554;2023-11-22T03:17:51;95971.25;;;15.08;48.32
82555;BME280;72219;48.186;11.554;2023-11-22T03:20:16;95972.91;;;15.17;48.11
82555;BME280;72219;48.186;11.554;2023-11-22T03:22:42;95979.41;;;15.13;47.76
82555;BME280;72219;48.186;11.554;2023-11-22T03:25:10;95977.44;;;15.15;47.77
82555;BME280;72219;48.186;11.554;2023-11-22T03:27:37;95974.03;;;15.14;47.91
82555;BME280;72219;48.186;11.554;2023-11-22T03:30:03;95985.94;;;15.17;47.81
82555;BME280;72219;48.186;11.554;2023-11-22T03:32:30;95977.44;;;15.23;47.36
82555;BME280;72219;48.186;11.554;2023-11-22T03:34:55;95974.22;;;15.21;47.95
82555;BME280;72219;48.186;11.554;2023-11-22T03:37:22;95981.03;;;15.22;47.60
82555;BME280;72219;48.186;11.554;2023-11-22T03:39:48;95975.69;;;15.24;47.94
82555;BME280;72219;48.186;11.554;2023-11-22T03:42:14;95968.31;;;15.11;48.05
82555;BME280;72219;48.186;11.554;2023-11-22T03:44:41;95988.72;;;15.24;47.59
82555;BME280;72219;48.186;11.554;2023-11-22T03:47:07;96000.28;;;15.29;47.45
82555;BME280;72219;48.186;11.554;2023-11-22T03:49:32;96004.50;;;15.22;47.42
82555;BME280;72219;48.186;11.554;2023-11-22T03:51:59;96012.31;;;15.22;47.39
82555;BME280;72219;48.186;11.554;2023-11-22T03:54:24;96014.13;;;15.22;47.77
82555;BME280;72219;48.186;11.554;2023-11-22T03:56:50;96014.44;;;15.19;47.75
82555;BME280;72219;48.186;11.554;2023-11-22T03:59:17;96018.53;;;15.21;47.74
82555;BME280;72219;48.186;11.554;2023-11-22T04:01:43;96027.50;;;15.27;47.32
82555;BME280;72219;48.186;11.554;2023-11-22T04:04:09;96023.91;;;15.20;47.95
82555;BME280;72219;48.186;11.554;2023-11-22T04:06:35;96030.25;;;15.25;47.43
82555;BME280;72219;48.186;11.554;2023-11-22T04:09:00;96018.81;;;15.10;47.76
82555;BME280;72219;48.186;11.554;2023-11-22T04:11:27;96033.16;;;15.22;47.49
82555;BME280;72219;48.186;11.554;2023-11-22T04:13:55;96041.31;;;15.27;47.58
82555;BME280;72219;48.186;11.554;2023-11-22T04:16:21;96037.59;;;15.30;47.42
82555;BME280;72219;48.186;11.554;2023-11-22T04:18:47;96034.16;;;15.21;47.58
82555;BME280;72219;48.186;11.554;2023-11-22T04:21:12;96044.59;;;15.21;47.32
82555;BME280;72219;48.186;11.554;2023-11-22T04:23:39;96047.19;;;15.13;47.64
82555;BME280;72219;48.186;11.554;2023-11-22T04:26:04;96037.88;;;15.10;47.46
82555;BME280;72219;48.186;11.554;2023-11-22T04:28:32;96058.94;;;15.17;47.80
82555;BME280;72219;48.186;11.554;2023-11-22T04:30:58;96045.53;;;15.12;47.92
82555;BME280;72219;48.186;11.554;2023-11-22T04:33:24;96060.88;;;15.23;47.46
82555;BME280;72219;48.186;11.554;2023-11-22T04:35:50;96064.13;;;15.09;47.58
82555;BME280;72219;48.186;11.554;2023-11-22T04:38:16;96053.81;;;15.07;47.63
82555;BME280;72219;48.186;11.554;2023-11-22T04:40:41;96058.75;;;15.10;47.92
82555;BME280;72219;48.186;11.554;2023-11-22T04:43:10;96071.63;;;15.12;47.69
82555;BME280;72219;48.186;11.554;2023-11-22T04:45:36;96075.69;;;15.14;47.52
82555;BME280;72219;48.186;11.554;2023-11-22T04:48:05;96072.88;;;15.00;47.80
82555;BME280;72219;48.186;11.554;2023-11-22T04:50:33;96087.72;;;15.16;47.53
82555;BME280;72219;48.186;11.554;2023-11-22T04:53:00;96082.84;;;15.12;47.57
82555;BME280;72219;48.186;11.554;2023-11-22T04:55:26;96084.66;;;15.12;47.54
82555;BME280;72219;48.186;11.554;2023-11-22T04:57:52;96088.84;;;15.05;47.69
82555;BME280;72219;48.186;11.554;2023-11-22T05:00:18;96098.00;;;15.09;48.03
82555;BME280;72219;48.186;11.554;2023-11-22T05:02:44;96089.84;;;15.04;47.65
82555;BME280;72219;48.186;11.554;2023-11-22T05:05:12;96101.41;;;15.09;47.60
82555;BME280;72219;48.186;11.554;2023-11-22T05:07:38;96101.38;;;15.01;47.91
82555;BME280;72219;48.186;11.554;2023-11-22T05:10:04;96099.78;;;15.08;47.83
82555;BME280;72219;48.186;11.554;2023-11-22T05:12:33;96107.91;;;15.05;47.48
82555;BME280;72219;48.186;11.554;2023-11-22T05:14:58;96090.97;;;15.01;47.47
82555;BME280;72219;48.186;11.554;2023-11-22T05:17:24;96087.69;;;14.99;47.74
82555;BME280;72219;48.186;11.554;2023-11-22T05:19:49;96112.47;;;15.11;47.50
82555;BME280;72219;48.186;11.554;2023-11-22T05:22:15;96108.84;;;14.96;47.77
82555;BME280;72219;48.186;11.554;2023-11-22T05:24:41;96106.78;;;15.08;47.26
82555;BME280;72219;48.186;11.554;2023-11-22T05:27:07;96111.97;;;15.00;47.64
82555;BME280;72219;48.186;11.554;2023-11-22T05:29:33;96120.78;;;15.07;47.81
82555;BME280;72219;48.186;11.554;2023-11-22T05:32:01;96129.09;;;15.02;47.74
82555;BME280;72219;48.186;11.554;2023-11-22T05:34:29;96137.72;;;15.03;47.42
82555;BME280;72219;48.186;11.554;2023-11-22T05:36:54;96134.03;;;14.87;47.62
82555;BME280;72219;48.186;11.554;2023-11-22T05:39:20;96134.72;;;14.89;47.92
82555;BME280;72219;48.186;11.554;2023-11-22T05:41:52;96124.63;;;14.86;48.11
82555;BME280;72219;48.186;11.554;2023-11-22T05:44:22;96144.72;;;15.02;47.55
82555;BME280;72219;48.186;11.554;2023-11-22T05:46:51;96128.72;;;14.97;47.52
82555;BME280;72219;48.186;11.554;2023-11-22T05:49:19;96158.06;;;15.07;47.69
82555;BME280;72219;48.186;11.554;2023-11-22T05:51:48;96155.25;;;14.92;47.86
82555;BME280;72219;48.186;11.554;2023-11-22T05:54:13;96156.88;;;14.93;47.35
82555;BME280;72219;48.186;11.554;2023-11-22T05:56:42;96166.66;;;14.91;47.90
82555;BME280;72219;48.186;11.554;2023-11-22T05:59:07;96169.59;;;14.96;47.57
82555;BME280;72219;48.186;11.554;2023-11-22T06:01:34;96177.31;;;15.06;47.38
82555;BME280;72219;48.186;11.554;2023-11-22T06:04:00;96172.19;;;14.96;47.39
82555;BME280;72219;48.186;11.554;2023-11-22T06:06:26;96178.34;;;14.87;47.92
82555;BME280;72219;48.186;11.554;2023-11-22T06:08:51;96179.22;;;14.96;47.59
82555;BME280;72219;48.186;11.554;2023-11-22T06:11:18;96170.91;;;15.01;47.50
82555;BME280;72219;48.186;11.554;2023-11-22T06:13:44;96170.06;;;14.92;47.17
82555;BME280;72219;48.186;11.554;2023-11-22T06:16:12;96180.69;;;14.99;47.21
82555;BME280;72219;48.186;11.554;2023-11-22T06:18:38;96184.59;;;14.94;47.40
82555;BME280;72219;48.186;11.554;2023-11-22T06:21:09;96185.22;;;14.96;47.60
82555;BME280;72219;48.186;11.554;2023-11-22T06:23:34;96188.66;;;14.97;47.48
82555;BME280;72219;48.186;11.554;2023-11-22T06:26:00;96184.53;;;14.86;47.49
82555;BME280;72219;48.186;11.554;2023-11-22T06:28:25;96183.06;;;14.84;47.05
82555;BME280;72219;48.186;11.554;2023-11-22T06:30:52;96198.56;;;14.93;47.35
82555;BME280;72219;48.186;11.554;2023-11-22T06:33:19;96190.75;;;14.93;47.44
82555;BME280;72219;48.186;11.554;2023-11-22T06:35:45;96203.47;;;14.96;47.26
82555;BME280;72219;48.186;11.554;2023-11-22T06:38:11;96160.50;;;14.66;47.51
82555;BME280;72219;48.186;11.554;2023-11-22T06:40:37;96206.19;;;14.87;47.26
82555;BME280;72219;48.186;11.554;2023-11-22T06:43:02;96212.28;;;14.95;47.32
82555;BME280;72219;48.186;11.554;2023-11-22T06:45:30;96219.41;;;14.93;47.00
82555;BME280;72219;48.186;11.554;2023-11-22T06:47:58;96209.81;;;14.94;47.41
82555;BME280;72219;48.186;11.554;2023-11-22T06:50:23;96213.25;;;14.94;47.18
82555;BME280;72219;48.186;11.554;2023-11-22T06:52:49;96221.56;;;14.98;47.42
82555;BME280;72219;48.186;11.554;2023-11-22T06:55:15;96226.13;;;14.96;47.43
82555;BME280;72219;48.186;11.554;2023-11-22T06:57:41;96243.03;;;14.92;47.51
82555;BME280;72219;48.186;11.554;2023-11-22T07:00:08;96245.47;;;14.93;47.21
82555;BME280;72219;48.186;11.554;2023-11-22T07:02:36;96226.38;;;14.85;47.31
82555;BME280;72219;48.186;11.554;2023-11-22T07:05:03;96242.81;;;14.85;47.13
82555;BME280;72219;48.186;11.554;2023-11-22T07:07:32;96253.09;;;14.87;47.20
82555;BME280;72219;48.186;11.554;2023-11-22T07:09:58;96239.31;;;14.94;47.22
82555;BME280;72219;48.186;11.554;2023-11-22T07:12:24;96247.94;;;14.95;47.45
82555;BME280;72219;48.186;11.554;2023-11-22T07:14:49;96241.19;;;14.84;47.42
82555;BME280;72219;48.186;11.554;2023-11-22T07:17:15;96251.22;;;14.97;47.22
82555;BME280;72219;48.186;11.554;2023-11-22T07:19:40;96262.59;;;14.96;47.01
82555;BME280;72219;48.186;11.554;2023-11-22T07:22:21;96266.22;;;15.03;46.89
82555;BME280;72219;48.186;11.554;2023-11-22T07:24:57;96268.16;;;15.01;47.18
82555;BME280;72219;48.186;11.554;2023-11-22T07:27:26;96280.69;;;14.97;47.00
82555;BME280;72219;48.186;11.554;2023-11-22T07:29:52;96280.88;;;15.04;46.60
82555;BME280;72219;48.186;11.554;2023-11-22T07:32:18;96285.53;;;14.92;47.10
82555;BME280;72219;48.186;11.554;2023-11-22T07:34:45;96295.94;;;14.92;47.20
82555;BME280;72219;48.186;11.554;2023-11-22T07:37:10;96288.28;;;14.91;46.88
82555;BME280;72219;48.186;11.554;2023-11-22T07:39:38;96293.81;;;14.88;46.97
82555;BME280;72219;48.186;11.554;2023-11-22T07:42:05;96301.84;;;14.94;47.00
82555;BME280;72219;48.186;11.554;2023-11-22T07:44:36;96329.22;;;14.99;47.05
82555;BME280;72219;48.186;11.554;2023-11-22T07:47:06;96314.97;;;14.85;47.04
82555;BME280;72219;48.186;11.554;2023-11-22T07:49:35;96328.97;;;14.84;46.81
82555;BME280;72219;48.186;11.554;2023-11-22T07:52:04;96328.22;;;14.73;47.48
82555;BME280;72219;48.186;11.554;2023-11-22T07:54:31;96320.09;;;14.76;47.23
82555;BME280;72219;48.186;11.554;2023-11-22T07:56:56;96327.69;;;14.88;46.98
82555;BME280;72219;48.186;11.554;2023-11-22T07:59:22;96325.25;;;14.86;47.23
82555;BME280;72219;48.186;11.554;2023-11-22T08:01:47;96321.63;;;14.87;47.16
82555;BME280;72219;48.186;11.554;2023-11-22T08:04:14;96336.38;;;14.96;46.87
82555;BME280;72219;48.186;11.554;2023-11-22T08:06:40;96333.41;;;14.73;47.34
82555;BME280;72219;48.186;11.554;2023-11-22T08:09:08;96349.41;;;14.96;46.75
82555;BME280;72219;48.186;11.554;2023-11-22T08:11:34;96341.03;;;14.85;46.67
82555;BME280;72219;48.186;11.554;2023-11-22T08:14:01;96360.06;;;14.85;47.27
82555;BME280;72219;48.186;11.554;2023-11-22T08:16:26;96360.06;;;14.85;46.80
82555;BME280;72219;48.186;11.554;2023-11-22T08:18:52;96365.44;;;14.84;46.99
82555;BME280;72219;48.186;11.554;2023-11-22T08:21:17;96378.31;;;14.85;46.85
82555;BME280;72219;48.186;11.554;2023-11-22T08:23:45;96378.63;;;14.82;47.28
82555;BME280;72219;48.186;11.554;2023-11-22T08:26:12;96365.41;;;14.66;47.37
82555;BME280;72219;48.186;11.554;2023-11-22T08:28:37;96374.38;;;14.81;47.39
82555;BME280;72219;48.186;11.554;2023-11-22T08:31:03;96357.09;;;14.80;46.78
82555;BME280;72219;48.186;11.554;2023-11-22T08:33:29;96391.09;;;14.96;46.85
82555;BME280;72219;48.186;11.554;2023-11-22T08:35:55;96371.03;;;14.89;46.61
82555;BME280;72219;48.186;11.554;2023-11-22T08:38:25;96360.81;;;14.95;46.75
82555;BME280;72219;48.186;11.554;2023-11-22T08:40:54;96366.53;;;14.99;46.70
82555;BME280;72219;48.186;11.554;2023-11-22T08:43:21;96381.94;;;15.10;46.35
82555;BME280;72219;48.186;11.554;2023-11-22T08:45:51;96382.22;;;15.07;46.23
82555;BME280;72219;48.186;11.554;2023-11-22T08:48:16;96382.53;;;15.04;46.25
82555;BME280;72219;48.186;11.554;2023-11-22T08:50:42;96374.34;;;14.99;46.26
82555;BME280;72219;48.186;11.554;2023-11-22T08:53:09;96411.34;;;15.03;46.17
82555;BME280;72219;48.186;11.554;2023-11-22T08:55:35;96410.56;;;15.02;46.50
82555;BME280;72219;48.186;11.554;2023-11-22T08:58:00;96409.00;;;14.91;46.52
82555;BME280;72219;48.186;11.554;2023-11-22T09:00:25;96405.41;;;14.92;46.54
82555;BME280;72219;48.186;11.554;2023-11-22T09:02:54;96409.72;;;15.02;46.33
82555;BME280;72219;48.186;11.554;2023-11-22T09:05:20;96400.19;;;14.92;46.34
82555;BME280;72219;48.186;11.554;2023-11-22T09:07:47;96413.00;;;15.04;45.99
82555;BME280;72219;48.186;11.554;2023-11-22T09:10:13;96424.00;;;14.97;46.53
82555;BME280;72219;48.186;11.554;2023-11-22T09:12:40;96417.31;;;14.95;46.58
82555;BME280;72219;48.186;11.554;2023-11-22T09:15:10;96424.69;;;15.00;46.15
82555;BME280;72219;48.186;11.554;2023-11-22T09:17:41;96420.66;;;14.87;46.35
82555;BME280;72219;48.186;11.554;2023-11-22T09:20:15;96433.53;;;15.07;46.40
82555;BME280;72219;48.186;11.554;2023-11-22T09:22:45;96454.69;;;15.04;46.57
82555;BME280;72219;48.186;11.554;2023-11-22T09:25:16;96446.56;;;15.07;45.44
82555;BME280;72219;48.186;11.554;2023-11-22T09:27:44;96447.97;;;15.19;46.25
82555;BME280;72219;48.186;11.554;2023-11-22T09:30:15;96453.13;;;15.11;45.96
82555;BME280;72219;48.186;11.554;2023-11-22T09:32:57;96431.22;;;14.86;46.22
82555;BME280;72219;48.186;11.554;2023-11-22T09:35:22;96439.56;;;14.89;46.73
82555;BME280;72219;48.186;11.554;2023-11-22T09:37:47;96468.78;;;14.93;45.95
82555;BME280;72219;48.186;11.554;2023-11-22T09:40:13;96470.53;;;14.92;46.50
82555;BME280;72219;48.186;11.554;2023-11-22T09:42:48;96470.53;;;14.92;46.34
82555;BME280;72219;48.186;11.554;2023-11-22T09:45:17;96459.38;;;14.82;46.25
82555;BME280;72219;48.186;11.554;2023-11-22T09:47:44;96468.31;;;14.79;46.74
82555;BME280;72219;48.186;11.554;2023-11-22T09:50:19;96459.88;;;14.68;46.73
82555;BME280;72219;48.186;11.554;2023-11-22T09:52:50;96428.94;;;14.65;46.46
82555;BME280;72219;48.186;11.554;2023-11-22T09:55:16;96433.03;;;14.67;46.50
82555;BME280;72219;48.186;11.554;2023-11-22T09:57:43;96457.50;;;14.92;46.26
82555;BME280;72219;48.186;11.554;2023-11-22T10:00:10;96450.47;;;14.85;45.73
82555;BME280;72219;48.186;11.554;2023-11-22T10:02:40;96441.50;;;14.87;45.21
82555;BME280;72219;48.186;11.554;2023-11-22T10:05:26;96448.44;;;14.96;46.02
82555;BME280;72219;48.186;11.554;2023-11-22T10:07:53;96457.16;;;15.05;45.98
82555;BME280;72219;48.186;11.554;2023-11-22T10:10:22;96471.31;;;15.03;46.50
82555;BME280;72219;48.186;11.554;2023-11-22T10:12:48;96471.31;;;15.03;46.07
82555;BME280;72219;48.186;11.554;2023-11-22T10:15:15;96460.50;;;14.97;46.40
82555;BME280;72219;48.186;11.554;2023-11-22T10:20:36;96447.31;;;14.99;46.20
82555;BME280;72219;48.186;11.554;2023-11-22T10:23:02;96460.00;;;15.12;45.80
82555;BME280;72219;48.186;11.554;2023-11-22T10:25:28;96462.53;;;15.04;45.83
82555;BME280;72219;48.186;11.554;2023-11-22T10:27:57;96463.19;;;15.06;45.54
82555;BME280;72219;48.186;11.554;2023-11-22T10:30:23;96436.09;;;14.99;46.28
82555;BME280;72219;48.186;11.554;2023-11-22T10:32:50;96467.50;;;15.15;46.09
82555;BME280;72219;48.186;11.554;2023-11-22T10:35:16;96471.28;;;15.21;45.59
82555;BME280;72219;48.186;11.554;2023-11-22T10:37:42;96440.69;;;15.05;45.46
82555;BME280;72219;48.186;11.554;2023-11-22T10:40:12;96467.50;;;15.15;45.05
82555;BME280;72219;48.186;11.554;2023-11-22T10:42:40;96469.16;;;15.16;45.13
82555;BME280;72219;48.186;11.554;2023-11-22T10:45:06;96469.44;;;15.13;45.73
82555;BME280;72219;48.186;11.554;2023-11-22T10:47:36;96466.31;;;15.09;45.12
82555;BME280;72219;48.186;11.554;2023-11-22T10:50:04;96487.41;;;15.16;45.71
82555;BME280;72219;48.186;11.554;2023-11-22T10:52:30;96476.13;;;15.16;45.89
82555;BME280;72219;48.186;11.554;2023-11-22T10:55:01;96486.28;;;15.19;45.96
82555;BME280;72219;48.186;11.554;2023-11-22T10:57:50;96482.19;;;15.16;45.33
82555;BME280;72219;48.186;11.554;2023-11-22T11:00:19;96476.22;;;15.06;44.90
82555;BME280;72219;48.186;11.554;2023-11-22T11:02:51;96492.31;;;15.01;45.33
82555;BME280;72219;48.186;11.554;2023-11-22T11:05:28;96494.38;;;15.16;45.85
82555;BME280;72219;48.186;11.554;2023-11-22T11:08:07;96480.09;;;15.02;45.77
82555;BME280;72219;48.186;11.554;2023-11-22T11:10:44;96493.03;;;15.11;45.52
82555;BME280;72219;48.186;11.554;2023-11-22T11:13:11;96507.28;;;15.17;46.08
82555;BME280;72219;48.186;11.554;2023-11-22T11:15:40;96499.59;;;15.16;45.50
82555;BME280;72219;48.186;11.554;2023-11-22T11:18:09;96480.47;;;15.07;45.85
82555;BME280;72219;48.186;11.554;2023-11-22T11:20:52;96508.53;;;15.31;45.68
82555;BME280;72219;48.186;11.554;2023-11-22T11:23:23;96510.84;;;15.16;45.34
82555;BME280;72219;48.186;11.554;2023-11-22T11:25:58;96500.59;;;15.14;45.91
82555;BME280;72219;48.186;11.554;2023-11-22T11:28:25;96513.75;;;15.31;44.99
82555;BME280;72219;48.186;11.554;2023-11-22T11:30:54;96501.47;;;15.23;45.50
82555;BME280;72219;48.186;11.554;2023-11-22T11:33:27;96487.69;;;15.13;45.37
82555;BME280;72219;48.186;11.554;2023-11-22T11:35:53;96454.97;;;15.01;45.55
82555;BME280;72219;48.186;11.554;2023-11-22T11:38:30;96422.22;;;14.80;45.37
82555;BME280;72219;48.186;11.554;2023-11-22T11:41:06;96485.66;;;15.25;45.88
82555;BME280;72219;48.186;11.554;2023-11-22T11:43:47;96421.25;;;14.81;45.64
82555;BME280;72219;48.186;11.554;2023-11-22T11:46:17;96483.22;;;15.23;45.06
82555;BME280;72219;48.186;11.554;2023-11-22T11:51:09;96479.06;;;15.30;45.34
82555;BME280;72219;48.186;11.554;2023-11-22T11:53:37;96480.59;;;15.23;45.16
82555;BME280;72219;48.186;11.554;2023-11-22T11:56:02;96476.00;;;15.17;45.77
82555;BME280;72219;48.186;11.554;2023-11-22T11:58:28;96468.31;;;15.16;45.47
82555;BME280;72219;48.186;11.554;2023-11-22T12:00:54;96475.00;;;15.18;45.58
82555;BME280;72219;48.186;11.554;2023-11-22T12:03:20;96438.69;;;14.99;45.51
82555;BME280;72219;48.186;11.554;2023-11-22T12:05:47;96477.63;;;15.18;45.47
82555;BME280;72219;48.186;11.554;2023-11-22T12:08:17;96467.34;;;14.99;46.02
82555;BME280;72219;48.186;11.554;2023-11-22T12:10:44;96484.19;;;15.04;46.12
82555;BME280;72219;48.186;11.554;2023-11-22T12:13:19;96491.84;;;15.06;45.83
82555;BME280;72219;48.186;11.554;2023-11-22T12:15:46;96505.75;;;14.96;46.03
82555;BME280;72219;48.186;11.554;2023-11-22T12:18:13;96506.28;;;15.00;45.56
82555;BME280;72219;48.186;11.554;2023-11-22T12:20:38;96497.44;;;14.93;46.25
82555;BME280;72219;48.186;11.554;2023-11-22T12:23:04;96526.69;;;15.05;45.87
82555;BME280;72219;48.186;11.554;2023-11-22T12:25:31;96521.47;;;15.05;46.25
82555;BME280;72219;48.186;11.554;2023-11-22T12:27:57;96510.41;;;15.03;45.14
82555;BME280;72219;48.186;11.554;2023-11-22T12:30:34;96502.91;;;14.90;45.71
82555;BME280;72219;48.186;11.554;2023-11-22T12:33:04;96529.91;;;14.99;45.49
82555;BME280;72219;48.186;11.554;2023-11-22T12:35:31;96536.22;;;14.96;45.40
82555;BME280;72219;48.186;11.554;2023-11-22T12:38:04;96527.59;;;14.95;45.69
82555;BME280;72219;48.186;11.554;2023-11-22T12:40:42;96502.84;;;14.82;46.21
82555;BME280;72219;48.186;11.554;2023-11-22T12:43:11;96497.63;;;14.82;45.80
82555;BME280;72219;48.186;11.554;2023-11-22T12:45:39;96510.63;;;14.91;45.75
82555;BME280;72219;48.186;11.554;2023-11-22T12:48:23;96513.06;;;14.93;46.54
82555;BME280;72219;48.186;11.554;2023-11-22T12:50:51;96497.94;;;14.78;45.54
82555;BME280;72219;48.186;11.554;2023-11-22T12:53:19;96521.84;;;14.92;46.05
82555;BME280;72219;48.186;11.554;2023-11-22T12:55:50;96526.09;;;14.93;46.04